North Bay Airport
CYYB : rendu visible

Aérodrome :











RETROUVEZ-NOUS SUR...

 
LOGIN :

S'inscrire | Disclaimer

   EN    FR    IT 

 









Légende :    VFR   VFR Marginal   IFR   IFR Intensif   IFR Très Intensif
Visi : 
Plafond : 
>= 8 km
>= 3000ft
5 à 8 km
1000 à 3000 ft
1500m à 5 km
500 à 1000 ft
800 à 1500m
200 à 500 ft
< 800m
< 200 ft
Symboles :   Orages  Brouillard  Fortes neiges  Fortes précipitations  Vent > 20 kt






- Altitude de l'aérodrome : 1215 ft
- Code IATA : YYB


CYYB - North Bay

DERNIER METAR :
  • 221900Z 23016KT 30SM BKN022 00/M04 A2994 RMK SC7 SLP158

METARs EXPIRÉS :
  • 221800Z 23016G22KT 30SM BKN022 00/M04 A2995 RMK SC7 SLP162
  • 221700Z 23013KT 30SM BKN020 M01/M04 A2996 RMK SC7 SLP167

TAF TAF CYYB
Valide du 22 à 20h jusqu'au 23 à 08h UTC


221939Z 2220/2308 23012G22KT P6SM BKN020
TEMPO 2220/2224 SCT020
FM230000 22012KT P6SM FEW020
TEMPO 2300/2306 BKN020
FM230600 22010KT P6SM BKN015 RMK NXT FCST BY 230200Z



MET'MAP, la Météo Aéronautique d'un coup d'oeil ! - Copyright ORBIFLY Décembre 2007 - Disclaimer

ORBIFLY MET'MAP TEAM :

Programmation & Développement : Alexandra Zaïnal
Sur une idée originale de : Baudouin d'Aumeries
Assistance à la programmation : Marc-Olivier Méhu
Soutien technique & logistique : Manuel Goepfert

Contact : metmap@orbifly.com




SOURCES & CREDITS :

   NOAA       Earth
Advisory